createdAt,value
2023-05-17T00:00:28.912Z,23.00
2023-05-17T00:03:15.720Z,23.50
2023-05-17T00:05:43.729Z,22.00
2023-05-17T00:08:11.784Z,23.00
2023-05-17T00:10:39.775Z,20.50
2023-05-17T00:13:08.106Z,22.00
2023-05-17T00:15:36.183Z,19.00
2023-05-17T00:18:04.450Z,21.50
2023-05-17T00:20:32.926Z,20.00
2023-05-17T00:23:01.204Z,25.00
2023-05-17T00:25:29.490Z,26.00
2023-05-17T00:27:57.864Z,25.50
2023-05-17T00:30:26.339Z,21.00
2023-05-17T00:32:54.226Z,23.00
2023-05-17T00:35:22.523Z,22.00
2023-05-17T00:37:52.466Z,23.00
2023-05-17T00:40:20.698Z,22.00
2023-05-17T00:42:48.945Z,24.00
2023-05-17T00:45:16.973Z,20.33
2023-05-17T00:47:44.909Z,19.50
2023-05-17T00:50:13.163Z,21.00
2023-05-17T00:52:41.325Z,24.00
2023-05-17T00:55:09.384Z,21.00
2023-05-17T00:57:37.297Z,21.00
2023-05-17T01:00:06.173Z,24.00
2023-05-17T01:05:03.179Z,22.00
2023-05-17T01:09:58.921Z,19.00
2023-05-17T01:12:45.714Z,22.00
2023-05-17T01:15:15.824Z,22.00
2023-05-17T01:17:46.547Z,22.00
2023-05-17T01:20:17.563Z,23.50
2023-05-17T01:22:59.244Z,22.00
2023-05-17T01:25:29.987Z,23.50
2023-05-17T01:28:00.824Z,20.50
2023-05-17T01:30:29.385Z,19.00
2023-05-17T01:32:59.478Z,18.00
2023-05-17T01:35:27.918Z,20.00
2023-05-17T01:37:56.066Z,22.00
2023-05-17T01:40:24.175Z,21.00
2023-05-17T01:42:58.320Z,18.00
2023-05-17T01:45:40.788Z,22.00
2023-05-17T01:48:17.763Z,22.00
2023-05-17T01:53:21.009Z,19.50
2023-05-17T01:56:01.581Z,22.00
2023-05-17T01:58:30.106Z,24.00
2023-05-17T02:00:58.574Z,19.00
2023-05-17T02:03:28.006Z,24.00
2023-05-17T02:08:24.370Z,21.00
2023-05-17T02:10:52.530Z,22.00
2023-05-17T02:13:20.384Z,20.50
2023-05-17T02:15:48.428Z,21.00
2023-05-17T02:18:16.942Z,22.50
2023-05-17T02:20:45.104Z,21.00
2023-05-17T02:23:13.262Z,26.00
2023-05-17T02:25:41.393Z,19.00
2023-05-17T02:28:09.281Z,22.00
2023-05-17T02:30:40.902Z,24.00
2023-05-17T02:33:09.317Z,22.00
2023-05-17T02:35:37.406Z,19.00
2023-05-17T02:38:05.474Z,21.00
2023-05-17T02:40:33.440Z,19.67
2023-05-17T02:43:03.977Z,22.00
2023-05-17T02:45:32.222Z,20.00
2023-05-17T02:48:00.479Z,23.00
2023-05-17T02:50:28.447Z,19.00
2023-05-17T02:52:56.889Z,21.50
2023-05-17T02:57:53.420Z,20.00
2023-05-17T03:00:23.364Z,17.50
2023-05-17T03:02:51.797Z,19.00
2023-05-17T03:05:19.903Z,17.50
2023-05-17T03:07:50.713Z,22.00
2023-05-17T03:10:19.195Z,21.00
2023-05-17T03:12:47.498Z,20.00
2023-05-17T03:15:18.522Z,18.00
2023-05-17T03:17:47.107Z,22.00
2023-05-17T03:20:16.633Z,19.00
2023-05-17T03:22:45.535Z,17.00
2023-05-17T03:25:13.701Z,19.00
2023-05-17T03:27:42.055Z,21.00
2023-05-17T03:30:10.845Z,22.00
2023-05-17T03:32:42.360Z,21.00
2023-05-17T03:35:10.595Z,20.00
2023-05-17T03:37:40.531Z,20.00
2023-05-17T03:40:09.256Z,19.00
2023-05-17T03:42:37.327Z,17.00
2023-05-17T03:45:06.583Z,20.00
2023-05-17T03:47:34.806Z,22.00
2023-05-17T03:50:03.501Z,19.00
2023-05-17T03:52:31.871Z,18.00
2023-05-17T03:55:00.346Z,18.00
2023-05-17T03:57:28.413Z,22.00
2023-05-17T04:02:26.543Z,21.00
2023-05-17T04:04:54.910Z,20.00
2023-05-17T04:07:24.076Z,19.00
2023-05-17T04:12:20.468Z,16.00
2023-05-17T04:14:48.912Z,18.00
2023-05-17T04:17:17.186Z,22.00
2023-05-17T04:19:46.101Z,20.50
2023-05-17T04:22:15.563Z,22.50
2023-05-17T04:24:44.159Z,21.00
2023-05-17T04:27:12.208Z,16.00
2023-05-17T04:32:09.924Z,20.00
2023-05-17T04:34:38.297Z,17.33
2023-05-17T04:37:07.184Z,18.33
2023-05-17T04:39:36.062Z,20.00
2023-05-17T04:42:04.544Z,16.50
2023-05-17T04:44:33.463Z,17.00
2023-05-17T04:47:01.711Z,20.00
2023-05-17T04:49:30.094Z,16.00
2023-05-17T04:51:58.148Z,18.50
2023-05-17T04:54:26.685Z,21.00
2023-05-17T04:56:55.020Z,18.00
2023-05-17T04:59:41.424Z,15.00
2023-05-17T05:02:10.728Z,17.00
2023-05-17T05:04:39.065Z,18.00
2023-05-17T05:07:07.186Z,17.00
2023-05-17T05:09:35.956Z,18.50
2023-05-17T05:12:05.086Z,16.00
2023-05-17T05:14:33.552Z,16.00
2023-05-17T05:17:01.728Z,18.00
2023-05-17T05:19:29.957Z,15.50
2023-05-17T05:21:59.154Z,16.00
2023-05-17T05:24:27.065Z,14.00
2023-05-17T05:26:55.218Z,16.00
2023-05-17T05:29:24.430Z,15.00
2023-05-17T05:34:20.207Z,16.00
2023-05-17T05:36:49.266Z,14.00
2023-05-17T05:39:18.339Z,15.00
2023-05-17T05:41:46.511Z,18.50
2023-05-17T05:44:14.533Z,16.00
2023-05-17T05:46:42.717Z,16.00
2023-05-17T05:49:10.930Z,15.50
2023-05-17T05:51:39.205Z,14.00
2023-05-17T05:54:07.883Z,16.00
2023-05-17T05:56:35.965Z,17.00
2023-05-17T05:59:03.915Z,17.00
2023-05-17T06:01:32.330Z,15.00
2023-05-17T06:04:00.483Z,15.00
2023-05-17T06:06:29.877Z,16.00
2023-05-17T06:08:59.646Z,15.00
2023-05-17T06:11:27.889Z,17.00
2023-05-17T06:13:56.249Z,16.00
2023-05-17T06:16:24.427Z,15.00
2023-05-17T06:18:52.555Z,15.00
2023-05-17T06:21:20.537Z,15.00
2023-05-17T06:23:49.252Z,14.00
2023-05-17T06:26:17.424Z,14.00
2023-05-17T06:31:14.384Z,16.00
2023-05-17T06:33:42.548Z,14.00
2023-05-17T06:36:10.768Z,13.00
2023-05-17T06:38:38.884Z,13.50
2023-05-17T06:41:06.847Z,16.00
2023-05-17T06:43:35.760Z,13.00
2023-05-17T06:46:08.337Z,11.00
2023-05-17T06:48:36.294Z,13.00
2023-05-17T06:51:04.395Z,12.00
2023-05-17T06:53:32.709Z,12.00
2023-05-17T06:56:00.579Z,13.00
2023-05-17T06:58:28.478Z,14.00
2023-05-17T07:00:57.383Z,13.00
2023-05-17T07:03:25.488Z,17.00
2023-05-17T07:05:53.712Z,13.00
2023-05-17T07:08:21.664Z,14.50
2023-05-17T07:10:52.525Z,14.00
2023-05-17T07:13:21.989Z,14.50
2023-05-17T07:15:49.920Z,14.00
2023-05-17T07:18:18.046Z,15.50
2023-05-17T07:20:46.652Z,13.00
2023-05-17T07:23:14.676Z,15.00
2023-05-17T07:25:43.312Z,16.00
2023-05-17T07:28:11.218Z,13.00
2023-05-17T07:30:39.452Z,14.00
2023-05-17T07:33:07.579Z,12.50
2023-05-17T07:35:36.008Z,13.50
2023-05-17T07:38:04.140Z,12.00
2023-05-17T07:40:32.137Z,11.00
2023-05-17T07:43:00.678Z,12.00
2023-05-17T07:45:29.324Z,14.00
2023-05-17T07:47:57.929Z,12.00
2023-05-17T07:50:26.582Z,11.00
2023-05-17T07:52:54.483Z,13.00
2023-05-17T07:55:22.437Z,12.00
2023-05-17T07:57:50.292Z,14.00
2023-05-17T08:00:19.981Z,11.00
2023-05-17T08:02:48.401Z,12.00
2023-05-17T08:05:16.391Z,11.00
2023-05-17T08:07:44.654Z,11.00
2023-05-17T08:10:12.577Z,11.00
2023-05-17T08:12:40.530Z,11.25
2023-05-17T08:15:09.582Z,10.00
2023-05-17T08:17:37.841Z,12.00
2023-05-17T08:20:08.077Z,10.00
2023-05-17T08:22:36.923Z,10.00
2023-05-17T08:25:05.910Z,11.50
2023-05-17T08:27:34.049Z,12.00
2023-05-17T08:30:02.483Z,11.00
2023-05-17T08:32:31.119Z,11.00
2023-05-17T08:34:59.086Z,11.00
2023-05-17T08:37:27.005Z,10.00
2023-05-17T08:44:51.849Z,9.00
2023-05-17T08:47:41.128Z,13.00
2023-05-17T08:50:11.213Z,11.00
2023-05-17T08:52:40.367Z,11.00
2023-05-17T08:55:09.291Z,13.00
2023-05-17T08:57:37.972Z,9.00
2023-05-17T09:00:12.612Z,7.50
2023-05-17T09:02:42.564Z,11.00
2023-05-17T09:07:39.473Z,11.00
2023-05-17T09:10:08.540Z,10.50
2023-05-17T09:12:36.946Z,8.00
2023-05-17T09:15:18.777Z,10.00
2023-05-17T09:17:54.340Z,7.00
2023-05-17T09:20:40.012Z,10.00
2023-05-17T09:23:13.465Z,7.00
2023-05-17T09:25:48.394Z,10.00
2023-05-17T09:28:18.523Z,8.00
2023-05-17T09:30:48.309Z,8.00
2023-05-17T09:33:18.597Z,12.00
2023-05-17T09:35:47.035Z,9.00
2023-05-17T09:38:15.205Z,12.00
2023-05-17T09:43:14.823Z,9.00
2023-05-17T09:45:42.901Z,11.00
2023-05-17T09:48:12.624Z,13.00
2023-05-17T09:50:47.953Z,16.00
2023-05-17T09:53:28.510Z,16.00
2023-05-17T09:55:58.658Z,10.00
2023-05-17T09:58:28.865Z,11.00
2023-05-17T10:01:08.724Z,10.50
2023-05-17T10:03:37.386Z,12.00
2023-05-17T10:06:13.300Z,10.00
2023-05-17T10:08:44.886Z,10.50
2023-05-17T10:11:13.165Z,10.00
2023-05-17T10:14:10.529Z,11.00
2023-05-17T10:16:38.812Z,10.00
2023-05-17T10:19:07.201Z,10.00
2023-05-17T10:21:35.383Z,10.00
2023-05-17T10:29:01.427Z,11.00
2023-05-17T10:31:29.809Z,12.00
2023-05-17T10:36:26.320Z,8.00
2023-05-17T10:38:54.332Z,10.00
2023-05-17T10:41:24.360Z,9.50
2023-05-17T10:43:52.461Z,11.00
2023-05-17T10:46:23.665Z,12.00
2023-05-17T10:48:52.705Z,11.50
2023-05-17T10:51:24.937Z,12.00
2023-05-17T10:54:12.030Z,11.00
2023-05-17T10:56:41.743Z,10.00
2023-05-17T10:59:22.050Z,13.00
2023-05-17T11:02:01.444Z,10.00
2023-05-17T11:04:33.833Z,9.00
2023-05-17T11:07:17.475Z,12.00
2023-05-17T11:09:47.030Z,11.00
2023-05-17T11:15:10.640Z,10.00
2023-05-17T11:17:46.770Z,11.50
2023-05-17T11:20:16.562Z,10.50
2023-05-17T11:23:07.190Z,8.00
2023-05-17T11:25:38.280Z,9.50
2023-05-17T11:28:17.786Z,11.00
2023-05-17T11:30:51.661Z,9.00
2023-05-17T11:33:32.794Z,10.00
2023-05-17T11:36:20.620Z,11.00
2023-05-17T11:38:52.312Z,12.00
2023-05-17T11:41:27.030Z,9.00
2023-05-17T11:43:55.759Z,12.00
2023-05-17T11:46:24.364Z,12.00
2023-05-17T11:48:53.252Z,11.00
2023-05-17T11:51:24.672Z,11.00
2023-05-17T11:53:57.344Z,11.50
2023-05-17T11:56:35.642Z,12.00
2023-05-17T12:01:46.158Z,11.00
2023-05-17T12:04:14.768Z,10.00
2023-05-17T12:06:44.248Z,10.00
2023-05-17T12:09:17.608Z,10.00
2023-05-17T12:11:46.336Z,8.00
2023-05-17T12:14:18.147Z,12.00
2023-05-17T12:16:48.906Z,10.00
2023-05-17T12:24:14.906Z,12.00
2023-05-17T12:26:46.743Z,12.00
2023-05-17T12:29:16.022Z,11.50
2023-05-17T12:31:50.922Z,12.00
2023-05-17T12:34:19.349Z,15.00
2023-05-17T12:36:47.279Z,14.00
2023-05-17T12:39:15.593Z,11.00
2023-05-17T12:41:43.746Z,12.00
2023-05-17T12:44:15.138Z,13.67
2023-05-17T12:46:44.522Z,15.00
2023-05-17T12:49:12.965Z,14.00
2023-05-17T12:51:44.425Z,13.75
2023-05-17T12:54:25.603Z,14.50
2023-05-17T12:56:53.836Z,13.00
2023-05-17T12:59:22.094Z,15.50
2023-05-17T13:01:52.058Z,14.00
2023-05-17T13:04:20.988Z,13.00
2023-05-17T13:06:57.454Z,14.00
2023-05-17T13:09:29.190Z,14.50
2023-05-17T13:11:57.845Z,13.50
2023-05-17T13:14:47.014Z,12.00
2023-05-17T13:17:22.385Z,13.00
2023-05-17T13:19:50.714Z,14.00
2023-05-17T13:22:18.831Z,15.00
2023-05-17T13:27:14.978Z,10.00
2023-05-17T13:29:43.048Z,10.00
2023-05-17T13:32:12.597Z,10.00
2023-05-17T13:34:40.672Z,9.00
2023-05-17T13:37:11.569Z,10.00
2023-05-17T13:39:41.846Z,9.00
2023-05-17T13:42:11.141Z,9.00
2023-05-17T13:44:39.502Z,8.00
2023-05-17T13:47:07.720Z,10.00
2023-05-17T13:52:08.827Z,9.50
2023-05-17T13:54:36.991Z,9.00
2023-05-17T13:57:08.148Z,9.00
2023-05-17T13:59:36.494Z,8.00
2023-05-17T14:02:04.451Z,8.00
2023-05-17T14:04:33.216Z,7.50
2023-05-17T14:07:02.109Z,6.00
2023-05-17T14:09:34.506Z,6.00
2023-05-17T14:12:02.376Z,8.00
2023-05-17T14:14:30.797Z,8.00
2023-05-17T14:16:59.001Z,7.00
2023-05-17T14:19:27.116Z,7.00
2023-05-17T14:21:55.118Z,8.00
2023-05-17T14:24:23.061Z,6.00
2023-05-17T14:26:51.286Z,7.00
2023-05-17T14:29:19.272Z,7.00
2023-05-17T14:31:47.063Z,7.00
2023-05-17T14:34:16.047Z,8.00
2023-05-17T14:36:44.139Z,6.00
2023-05-17T14:39:12.068Z,7.00
2023-05-17T14:41:41.626Z,6.00
2023-05-17T14:44:10.977Z,6.50
2023-05-17T14:46:39.847Z,7.00
2023-05-17T14:49:08.173Z,6.00
2023-05-17T14:51:36.509Z,8.00
2023-05-17T14:54:06.018Z,9.00
2023-05-17T14:56:34.489Z,9.00
2023-05-17T14:59:03.339Z,9.00
2023-05-17T15:01:31.379Z,11.00
2023-05-17T15:03:59.374Z,10.00
2023-05-17T15:06:27.414Z,9.50
2023-05-17T15:08:55.672Z,9.00
2023-05-17T15:11:24.570Z,7.00
2023-05-17T15:13:53.148Z,8.00
2023-05-17T15:16:23.158Z,9.00
2023-05-17T15:18:52.512Z,10.00
2023-05-17T15:21:21.348Z,10.00
2023-05-17T15:23:50.808Z,10.50
2023-05-17T15:26:18.864Z,9.00
2023-05-17T15:28:49.978Z,13.00
2023-05-17T15:31:18.117Z,9.00
2023-05-17T15:33:46.121Z,11.00
2023-05-17T15:36:16.284Z,19.00
2023-05-17T15:38:44.772Z,14.50
2023-05-17T15:41:14.864Z,20.50
2023-05-17T15:43:42.810Z,20.50
2023-05-17T15:46:11.710Z,21.00
2023-05-17T15:48:39.970Z,16.00
2023-05-17T15:51:08.052Z,13.75
2023-05-17T15:53:36.210Z,13.50
2023-05-17T15:56:04.892Z,15.00
2023-05-17T15:58:33.657Z,18.00
2023-05-17T16:01:05.663Z,12.00
2023-05-17T16:03:33.933Z,11.00
2023-05-17T16:06:04.466Z,10.50
2023-05-17T16:08:34.080Z,11.00
2023-05-17T16:11:02.862Z,13.00
2023-05-17T16:13:31.201Z,14.50
2023-05-17T16:15:59.901Z,11.00
2023-05-17T16:18:28.740Z,15.00
2023-05-17T16:20:58.610Z,15.00
2023-05-17T16:23:26.898Z,15.00
2023-05-17T16:25:56.046Z,15.00
2023-05-17T16:28:24.077Z,15.50
2023-05-17T16:30:52.422Z,16.00
2023-05-17T16:33:20.695Z,15.00
2023-05-17T16:35:49.139Z,16.00
2023-05-17T16:38:17.217Z,17.50
2023-05-17T16:40:45.157Z,10.50
2023-05-17T16:43:16.127Z,12.00
2023-05-17T16:45:44.776Z,14.00
2023-05-17T16:48:14.205Z,19.50
2023-05-17T16:50:42.276Z,22.00
2023-05-17T16:53:10.220Z,13.00
2023-05-17T16:55:38.048Z,13.00
2023-05-17T16:58:06.161Z,14.00
2023-05-17T17:00:34.520Z,17.00
2023-05-17T17:03:02.855Z,21.00
2023-05-17T17:07:59.727Z,16.00
2023-05-17T17:10:28.138Z,15.00
2023-05-17T17:12:56.691Z,16.00
2023-05-17T17:15:25.193Z,18.50
2023-05-17T17:17:53.490Z,19.00
2023-05-17T17:20:21.719Z,17.00
2023-05-17T17:22:49.898Z,17.00
2023-05-17T17:25:19.044Z,21.00
2023-05-17T17:27:47.083Z,23.00
2023-05-17T17:30:15.129Z,21.00
2023-05-17T17:32:43.106Z,19.00
2023-05-17T17:35:11.185Z,20.00
2023-05-17T17:37:39.069Z,18.00
2023-05-17T17:40:08.034Z,19.00
2023-05-17T17:42:36.112Z,21.00
2023-05-17T17:45:04.830Z,20.00
2023-05-17T17:47:32.862Z,20.00
2023-05-17T17:50:01.246Z,20.00
2023-05-17T17:52:29.195Z,20.50
2023-05-17T17:54:57.333Z,17.00
2023-05-17T17:57:25.455Z,21.00
2023-05-17T17:59:53.623Z,20.00
2023-05-17T18:02:21.547Z,20.00
2023-05-17T18:04:49.612Z,18.00
2023-05-17T18:07:18.765Z,18.00
2023-05-17T18:09:46.860Z,21.00
2023-05-17T18:12:15.103Z,21.00
2023-05-17T18:14:43.281Z,21.00
2023-05-17T18:17:11.397Z,20.00
2023-05-17T18:19:39.293Z,19.50
2023-05-17T18:22:07.079Z,18.00
2023-05-17T18:24:35.051Z,21.00
2023-05-17T18:27:03.412Z,18.50
2023-05-17T18:29:31.476Z,21.00
2023-05-17T18:32:01.804Z,20.00
2023-05-17T18:34:29.894Z,22.00
2023-05-17T18:39:26.549Z,21.00
2023-05-17T18:41:54.721Z,20.00
2023-05-17T18:44:25.488Z,21.00
2023-05-17T18:46:54.254Z,18.00
2023-05-17T18:49:22.515Z,18.00
2023-05-17T18:51:50.350Z,20.00
2023-05-17T18:54:18.659Z,20.00
2023-05-17T18:56:46.665Z,19.00
2023-05-17T18:59:14.697Z,19.00
2023-05-17T19:01:44.052Z,18.50
2023-05-17T19:04:12.245Z,20.00
2023-05-17T19:06:42.498Z,20.00
2023-05-17T19:09:10.465Z,18.00
2023-05-17T19:11:38.773Z,22.00
2023-05-17T19:14:07.339Z,20.00
2023-05-17T19:16:35.496Z,20.00
2023-05-17T19:19:03.610Z,18.00
2023-05-17T19:21:31.570Z,13.50
2023-05-17T19:26:27.480Z,16.00
2023-05-17T19:28:55.745Z,16.50
2023-05-17T19:31:23.929Z,14.00
2023-05-17T19:33:51.801Z,15.00
2023-05-17T19:36:19.863Z,14.00
2023-05-17T19:38:49.882Z,14.00
2023-05-17T19:41:20.724Z,14.00
2023-05-17T19:43:48.712Z,12.00
2023-05-17T19:46:16.837Z,14.00
2023-05-17T19:48:44.949Z,13.00
2023-05-17T19:51:13.008Z,13.67
2023-05-17T19:53:52.536Z,12.50
2023-05-17T19:56:23.330Z,15.00
2023-05-17T19:58:52.329Z,14.00
2023-05-17T20:01:21.831Z,16.00
2023-05-17T20:03:50.228Z,13.00
2023-05-17T20:06:18.539Z,15.00
2023-05-17T20:08:47.043Z,14.50
2023-05-17T20:11:14.929Z,16.00
2023-05-17T20:13:42.753Z,16.00
2023-05-17T20:18:44.790Z,12.67
2023-05-17T20:21:15.118Z,15.00
2023-05-17T20:23:43.482Z,14.00
2023-05-17T20:26:16.652Z,13.50
2023-05-17T20:28:44.788Z,14.00
2023-05-17T20:31:13.235Z,13.00
2023-05-17T20:33:41.527Z,15.00
2023-05-17T20:36:11.874Z,12.00
2023-05-17T20:38:40.786Z,12.00
2023-05-17T20:41:08.909Z,13.50
2023-05-17T20:43:37.443Z,15.00
2023-05-17T20:46:09.807Z,14.50
2023-05-17T20:48:40.345Z,15.00
2023-05-17T20:51:10.834Z,13.50
2023-05-17T20:54:32.967Z,14.00
2023-05-17T20:57:04.399Z,10.50
2023-05-17T20:59:33.714Z,12.00
2023-05-17T21:02:05.256Z,12.50
2023-05-17T21:04:36.265Z,14.50
2023-05-17T21:07:06.131Z,12.00
2023-05-17T21:09:37.970Z,14.00
2023-05-17T21:12:07.739Z,13.00
2023-05-17T21:14:38.271Z,14.00
2023-05-17T21:17:11.303Z,14.00
2023-05-17T21:19:40.406Z,15.00
2023-05-17T21:22:10.270Z,13.67
2023-05-17T21:24:39.950Z,14.00
2023-05-17T21:27:09.106Z,15.00
2023-05-17T21:29:39.590Z,14.00
2023-05-17T21:32:08.401Z,13.50
2023-05-17T21:37:09.428Z,12.00
2023-05-17T21:39:39.145Z,14.00
2023-05-17T21:42:09.671Z,15.00
2023-05-17T21:44:39.448Z,13.50
2023-05-17T21:47:09.021Z,13.00
2023-05-17T21:49:39.617Z,14.00
2023-05-17T21:52:09.567Z,13.00
2023-05-17T21:57:09.137Z,13.00
2023-05-17T21:59:37.108Z,14.00
2023-05-17T22:02:06.848Z,15.00
2023-05-17T22:04:35.155Z,11.00
2023-05-17T22:07:04.139Z,16.00
2023-05-17T22:09:33.576Z,13.50
2023-05-17T22:12:05.350Z,15.00
2023-05-17T22:14:42.554Z,15.00
2023-05-17T22:17:11.111Z,14.00
2023-05-17T22:19:45.788Z,14.00
2023-05-17T22:22:15.364Z,15.00
2023-05-17T22:24:44.757Z,13.50
2023-05-17T22:27:13.746Z,15.00
2023-05-17T22:29:41.884Z,13.50
2023-05-17T22:32:12.401Z,14.00
2023-05-17T22:34:48.502Z,14.00
2023-05-17T22:37:17.688Z,16.00
2023-05-17T22:39:47.406Z,15.00
2023-05-17T22:42:16.448Z,13.50
2023-05-17T22:44:45.703Z,14.50
2023-05-17T22:47:15.580Z,15.00
2023-05-17T22:49:45.719Z,15.00
2023-05-17T22:52:16.768Z,13.00
2023-05-17T22:54:45.025Z,16.00
2023-05-17T22:57:15.909Z,15.00
2023-05-17T22:59:45.754Z,16.00
2023-05-17T23:02:14.958Z,16.00
2023-05-17T23:04:46.070Z,16.50
2023-05-17T23:07:15.164Z,15.00
2023-05-17T23:09:45.130Z,13.00
2023-05-17T23:12:14.625Z,16.00
2023-05-17T23:14:44.041Z,16.00
2023-05-17T23:17:13.271Z,15.00
2023-05-17T23:19:41.263Z,19.00
2023-05-17T23:22:11.680Z,17.00
2023-05-17T23:24:41.486Z,17.00
2023-05-17T23:27:10.388Z,16.50
2023-05-17T23:32:13.898Z,20.00
2023-05-17T23:34:46.100Z,17.00
2023-05-17T23:37:16.928Z,20.00
2023-05-17T23:39:47.187Z,25.00
2023-05-17T23:42:16.561Z,25.00
2023-05-17T23:44:48.475Z,21.00
2023-05-17T23:47:17.134Z,19.50
2023-05-17T23:49:46.010Z,19.00
2023-05-17T23:52:15.239Z,20.00
2023-05-17T23:54:44.500Z,18.50
2023-05-17T23:57:14.111Z,17.50
2023-05-17T23:59:42.470Z,19.00
